createdAt,value
2022-10-22T00:00:00.751Z,100906.66
2022-10-22T00:02:27.975Z,100906.66
2022-10-22T00:04:56.974Z,100902.34
2022-10-22T00:07:24.351Z,100904.94
2022-10-22T00:09:50.811Z,100905.06
2022-10-22T00:12:17.412Z,100907.88
2022-10-22T00:14:43.844Z,100914.88
2022-10-22T00:17:11.556Z,100916.00
2022-10-22T00:19:38.930Z,100921.44
2022-10-22T00:22:05.801Z,100917.22
2022-10-22T00:24:33.374Z,100920.03
2022-10-22T00:27:00.319Z,100927.13
2022-10-22T00:29:26.695Z,100920.22
2022-10-22T00:31:53.317Z,100920.22
2022-10-22T00:34:22.292Z,100928.16
2022-10-22T00:36:50.355Z,100929.81
2022-10-22T00:39:19.199Z,100921.16
2022-10-22T00:41:48.453Z,100919.38
2022-10-22T00:44:52.628Z,100924.44
2022-10-22T00:47:20.718Z,100925.34
2022-10-22T00:49:48.178Z,100928.91
2022-10-22T00:52:15.008Z,100935.06
2022-10-22T00:54:42.479Z,100935.91
2022-10-22T00:57:09.725Z,100929.00
2022-10-22T00:59:36.758Z,100927.22
2022-10-22T01:02:04.055Z,100929.00
2022-10-22T01:04:30.638Z,100929.94
2022-10-22T01:06:57.070Z,100924.81
2022-10-22T01:09:38.319Z,100935.06
2022-10-22T01:12:13.806Z,100928.34
2022-10-22T01:14:58.243Z,100937.88
2022-10-22T01:17:50.691Z,100931.81
2022-10-22T01:20:56.008Z,100936.94
2022-10-22T01:24:04.811Z,100932.66
2022-10-22T01:26:34.013Z,100926.00
2022-10-22T01:29:05.201Z,100930.41
2022-10-22T01:31:38.722Z,100931.22
2022-10-22T01:34:08.367Z,100934.78
2022-10-22T01:36:37.357Z,100926.22
2022-10-22T01:39:05.653Z,100928.00
2022-10-22T01:41:32.042Z,100923.69
2022-10-22T01:43:58.703Z,100933.22
2022-10-22T01:46:28.198Z,100928.91
2022-10-22T01:49:39.299Z,100927.88
2022-10-22T01:52:27.737Z,100922.75
2022-10-22T01:55:26.457Z,100928.69
2022-10-22T01:58:08.077Z,100922.00
2022-10-22T02:00:39.066Z,100927.31
2022-10-22T02:03:17.447Z,100921.25
2022-10-22T02:05:52.221Z,100929.00
2022-10-22T02:08:24.275Z,100914.25
2022-10-22T02:10:51.478Z,100909.13
2022-10-22T02:13:24.849Z,100910.91
2022-10-22T02:15:52.822Z,100908.38
2022-10-22T02:18:25.895Z,100912.69
2022-10-22T02:20:53.255Z,100907.63
2022-10-22T02:23:21.337Z,100906.78
2022-10-22T02:25:53.715Z,100905.94
2022-10-22T02:28:29.123Z,100901.63
2022-10-22T02:31:03.655Z,100908.66
2022-10-22T02:33:38.872Z,100906.09
2022-10-22T02:36:07.295Z,100905.34
2022-10-22T02:38:34.604Z,100909.94
2022-10-22T02:41:01.389Z,100907.41
2022-10-22T02:43:29.445Z,100911.06
2022-10-22T02:45:55.885Z,100911.97
2022-10-22T02:48:22.471Z,100914.56
2022-10-22T02:50:48.929Z,100913.75
2022-10-22T02:53:15.263Z,100919.88
2022-10-22T02:55:41.639Z,100918.22
2022-10-22T02:58:07.983Z,100921.75
2022-10-22T03:00:34.375Z,100918.41
2022-10-22T03:03:00.843Z,100921.94
2022-10-22T03:05:27.170Z,100925.59
2022-10-22T03:07:53.487Z,100931.66
2022-10-22T03:10:19.833Z,100929.88
2022-10-22T03:12:46.242Z,100932.69
2022-10-22T03:15:12.990Z,100928.28
2022-10-22T03:17:39.550Z,100925.69
2022-10-22T03:20:06.612Z,100924.84
2022-10-22T03:22:35.227Z,100927.25
2022-10-22T03:25:07.953Z,100922.03
2022-10-22T03:27:36.850Z,100927.38
2022-10-22T03:30:04.254Z,100932.59
2022-10-22T03:32:30.722Z,100930.91
2022-10-22T03:34:57.173Z,100933.72
2022-10-22T03:37:25.079Z,100935.38
2022-10-22T03:39:52.810Z,100928.38
2022-10-22T03:42:19.652Z,100928.38
2022-10-22T03:44:46.201Z,100933.72
2022-10-22T03:47:12.670Z,100932.97
2022-10-22T03:49:39.049Z,100945.91
2022-10-22T03:52:10.212Z,100940.69
2022-10-22T03:57:09.724Z,100947.75
2022-10-22T03:59:37.592Z,100943.50
2022-10-22T04:02:04.535Z,100954.84
2022-10-22T04:04:31.140Z,100951.41
2022-10-22T04:06:57.447Z,100951.53
2022-10-22T04:09:23.802Z,100956.00
2022-10-22T04:11:50.168Z,100952.50
2022-10-22T04:14:16.555Z,100961.38
2022-10-22T04:16:43.025Z,100958.75
2022-10-22T04:19:09.369Z,100946.72
2022-10-22T04:21:35.809Z,100958.97
2022-10-22T04:24:02.407Z,100960.81
2022-10-22T04:26:28.890Z,100951.19
2022-10-22T04:28:55.273Z,100952.97
2022-10-22T04:31:25.169Z,100959.13
2022-10-22T04:33:56.913Z,100965.19
2022-10-22T04:36:24.411Z,100966.19
2022-10-22T04:38:57.333Z,100973.88
2022-10-22T04:41:29.772Z,100960.06
2022-10-22T04:43:57.244Z,100963.59
2022-10-22T04:46:24.791Z,100963.59
2022-10-22T04:48:52.571Z,100965.28
2022-10-22T04:51:20.999Z,100967.03
2022-10-22T04:53:48.211Z,100961.81
2022-10-22T04:56:21.644Z,100969.56
2022-10-22T04:58:49.935Z,100974.88
2022-10-22T05:01:23.349Z,100977.31
2022-10-22T05:03:51.717Z,100971.34
2022-10-22T05:06:20.376Z,100978.34
2022-10-22T05:08:47.805Z,100977.47
2022-10-22T05:11:20.369Z,100972.25
2022-10-22T05:13:47.423Z,100979.44
2022-10-22T05:16:14.366Z,100969.84
2022-10-22T05:18:42.889Z,100976.84
2022-10-22T05:21:11.645Z,100974.22
2022-10-22T05:23:38.183Z,100974.31
2022-10-22T05:26:06.642Z,100987.44
2022-10-22T05:28:34.300Z,100980.47
2022-10-22T05:31:01.690Z,100985.78
2022-10-22T05:33:30.456Z,100985.78
2022-10-22T05:35:58.266Z,100985.03
2022-10-22T05:38:24.998Z,100985.09
2022-10-22T05:41:13.162Z,100986.81
2022-10-22T05:43:39.655Z,100989.50
2022-10-22T05:46:12.155Z,101001.59
2022-10-22T05:48:38.850Z,100992.25
2022-10-22T05:51:10.934Z,100998.41
2022-10-22T05:53:39.494Z,101009.88
2022-10-22T05:56:08.844Z,100997.75
2022-10-22T05:58:36.638Z,101003.84
2022-10-22T06:01:18.310Z,101011.75
2022-10-22T06:03:45.601Z,101012.75
2022-10-22T06:06:23.145Z,101012.66
2022-10-22T06:08:51.541Z,101015.44
2022-10-22T06:11:19.273Z,101026.72
2022-10-22T06:13:46.736Z,101026.81
2022-10-22T06:16:13.539Z,101029.41
2022-10-22T06:18:40.488Z,101034.63
2022-10-22T06:21:09.623Z,101037.25
2022-10-22T06:23:37.414Z,101042.47
2022-10-22T06:26:05.255Z,101046.94
2022-10-22T06:28:32.790Z,101039.09
2022-10-22T06:31:00.873Z,101049.53
2022-10-22T06:33:28.801Z,101057.22
2022-10-22T06:35:55.241Z,101054.75
2022-10-22T06:38:21.814Z,101059.97
2022-10-22T06:40:48.145Z,101064.47
2022-10-22T06:43:14.715Z,101069.69
2022-10-22T06:45:41.198Z,101067.91
2022-10-22T06:48:07.662Z,101075.66
2022-10-22T06:50:35.061Z,101084.16
2022-10-22T06:53:01.522Z,101083.31
2022-10-22T06:55:28.224Z,101090.13
2022-10-22T06:57:55.593Z,101094.44
2022-10-22T07:00:22.415Z,101089.13
2022-10-22T07:02:56.422Z,101097.63
2022-10-22T07:05:25.513Z,101104.53
2022-10-22T07:07:51.871Z,101099.16
2022-10-22T07:10:18.437Z,101101.59
2022-10-22T07:12:44.850Z,101105.81
2022-10-22T07:15:11.542Z,101107.50
2022-10-22T07:17:37.959Z,101106.47
2022-10-22T07:20:04.916Z,101101.16
2022-10-22T07:22:31.501Z,101103.78
2022-10-22T07:24:57.880Z,101116.75
2022-10-22T07:27:24.325Z,101125.34
2022-10-22T07:29:50.803Z,101114.72
2022-10-22T07:32:19.632Z,101117.00
2022-10-22T07:34:48.000Z,101128.13
2022-10-22T07:37:14.474Z,101127.03
2022-10-22T07:39:40.989Z,101129.38
2022-10-22T07:42:07.369Z,101138.72
2022-10-22T07:44:33.834Z,101139.38
2022-10-22T07:47:02.866Z,101137.44
2022-10-22T07:49:29.225Z,101134.69
2022-10-22T07:51:56.963Z,101143.91
2022-10-22T07:54:23.891Z,101143.69
2022-10-22T07:56:50.300Z,101143.53
2022-10-22T07:59:16.667Z,101151.09
2022-10-22T08:01:43.084Z,101153.53
2022-10-22T08:04:09.839Z,101156.72
2022-10-22T08:06:36.562Z,101162.53
2022-10-22T08:09:03.071Z,101163.97
2022-10-22T08:11:29.626Z,101165.38
2022-10-22T08:13:55.953Z,101165.94
2022-10-22T08:16:22.257Z,101169.31
2022-10-22T08:18:48.589Z,101165.66
2022-10-22T08:21:14.951Z,101170.63
2022-10-22T08:23:41.337Z,101170.47
2022-10-22T08:26:07.756Z,101184.09
2022-10-22T08:28:36.993Z,101179.69
2022-10-22T08:31:07.737Z,101180.47
2022-10-22T08:33:34.798Z,101183.06
2022-10-22T08:36:01.351Z,101186.44
2022-10-22T08:38:27.829Z,101197.78
2022-10-22T08:41:05.927Z,101196.75
2022-10-22T08:44:01.892Z,101193.19
2022-10-22T08:46:43.722Z,101198.41
2022-10-22T08:49:19.736Z,101205.97
2022-10-22T08:51:46.366Z,101211.13
2022-10-22T08:54:36.743Z,101212.56
2022-10-22T08:57:16.430Z,101209.59
2022-10-22T08:59:51.567Z,101212.59
2022-10-22T09:02:33.692Z,101218.19
2022-10-22T09:05:18.001Z,101223.25
2022-10-22T09:07:49.909Z,101222.41
2022-10-22T09:10:19.281Z,101234.56
2022-10-22T09:12:47.978Z,101228.28
2022-10-22T09:15:16.544Z,101227.09
2022-10-22T09:18:14.331Z,101238.44
2022-10-22T09:20:49.704Z,101236.28
2022-10-22T09:23:52.807Z,101235.25
2022-10-22T09:26:19.395Z,101242.84
2022-10-22T09:28:50.943Z,101243.47
2022-10-22T09:31:18.042Z,101241.25
2022-10-22T09:33:48.764Z,101244.31
2022-10-22T09:36:17.996Z,101244.03
2022-10-22T09:38:53.150Z,101255.09
2022-10-22T09:41:23.176Z,101256.75
2022-10-22T09:43:50.026Z,101250.75
2022-10-22T09:46:19.353Z,101253.28
2022-10-22T09:48:58.503Z,101259.28
2022-10-22T09:51:35.714Z,101267.81
2022-10-22T09:54:13.295Z,101265.81
2022-10-22T09:56:43.234Z,101270.50
2022-10-22T09:59:16.021Z,101277.03
2022-10-22T10:01:42.705Z,101286.09
2022-10-22T10:04:12.449Z,101294.22
2022-10-22T10:06:41.815Z,101298.50
2022-10-22T10:09:35.373Z,101290.50
2022-10-22T10:12:29.167Z,101299.34
2022-10-22T10:15:24.420Z,101292.03
2022-10-22T10:18:04.333Z,101298.50
2022-10-22T10:20:57.314Z,101298.25
2022-10-22T10:23:54.839Z,101302.97
2022-10-22T10:26:36.332Z,101310.41
2022-10-22T10:29:18.011Z,101314.13
2022-10-22T10:32:03.106Z,101311.72
2022-10-22T10:34:44.057Z,101315.47
2022-10-22T10:37:13.264Z,101324.72
2022-10-22T10:39:47.097Z,101329.84
2022-10-22T10:42:27.088Z,101325.44
2022-10-22T10:45:13.635Z,101321.97
2022-10-22T10:48:05.036Z,101331.63
2022-10-22T10:50:47.809Z,101341.91
2022-10-22T10:53:19.920Z,101335.75
2022-10-22T10:55:56.777Z,101329.34
2022-10-22T10:58:32.194Z,101335.44
2022-10-22T11:01:12.594Z,101340.91
2022-10-22T11:03:52.047Z,101343.63
2022-10-22T11:06:23.146Z,101350.03
2022-10-22T11:09:03.462Z,101344.91
2022-10-22T11:11:48.665Z,101351.97
2022-10-22T11:14:27.800Z,101345.13
2022-10-22T11:17:04.340Z,101352.50
2022-10-22T11:19:51.053Z,101352.56
2022-10-22T11:22:50.542Z,101356.47
2022-10-22T11:25:38.523Z,101354.59
2022-10-22T11:28:29.769Z,101366.56
2022-10-22T11:31:02.023Z,101367.31
2022-10-22T11:33:38.020Z,101369.22
2022-10-22T11:36:05.769Z,101366.19
2022-10-22T11:38:35.123Z,101359.91
2022-10-22T11:41:10.731Z,101359.72
2022-10-22T11:43:54.982Z,101372.16
2022-10-22T11:46:21.251Z,101360.16
2022-10-22T11:49:16.921Z,101368.56
2022-10-22T11:51:44.753Z,101358.69
2022-10-22T11:54:42.807Z,101363.81
2022-10-22T11:57:15.057Z,101364.31
2022-10-22T11:59:47.415Z,101371.06
2022-10-22T12:02:30.460Z,101365.59
2022-10-22T12:05:22.673Z,101369.78
2022-10-22T12:08:03.875Z,101368.53
2022-10-22T12:10:48.472Z,101359.09
2022-10-22T12:13:24.332Z,101371.84
2022-10-22T12:15:54.584Z,101373.28
2022-10-22T12:18:25.284Z,101372.09
2022-10-22T12:20:53.864Z,101377.97
2022-10-22T12:23:24.660Z,101377.88
2022-10-22T12:25:51.007Z,101381.75
2022-10-22T12:28:18.978Z,101379.03
2022-10-22T12:30:45.346Z,101389.53
2022-10-22T12:33:21.568Z,101377.97
2022-10-22T12:35:51.384Z,101386.41
2022-10-22T12:38:21.383Z,101391.06
2022-10-22T12:40:49.194Z,101387.94
2022-10-22T12:43:28.841Z,101376.25
2022-10-22T12:45:57.660Z,101381.69
2022-10-22T12:48:28.140Z,101385.69
2022-10-22T12:50:57.971Z,101381.06
2022-10-22T12:53:49.407Z,101383.38
2022-10-22T12:56:32.323Z,101382.84
2022-10-22T12:59:01.867Z,101382.22
2022-10-22T13:01:35.943Z,101379.59
2022-10-22T13:04:07.365Z,101379.69
2022-10-22T13:06:35.773Z,101380.13
2022-10-22T13:09:02.136Z,101376.56
2022-10-22T13:11:41.004Z,101382.63
2022-10-22T13:14:25.779Z,101378.44
2022-10-22T13:17:07.693Z,101375.69
2022-10-22T13:19:48.135Z,101374.19
2022-10-22T13:22:35.586Z,101373.66
2022-10-22T13:25:13.752Z,101375.03
2022-10-22T13:27:44.116Z,101368.69
2022-10-22T13:30:22.088Z,101380.06
2022-10-22T13:32:56.751Z,101377.66
2022-10-22T13:35:43.501Z,101381.84
2022-10-22T13:38:18.396Z,101381.22
2022-10-22T13:40:45.005Z,101393.97
2022-10-22T13:43:12.458Z,101384.63
2022-10-22T13:45:39.504Z,101385.78
2022-10-22T13:48:06.418Z,101396.94
2022-10-22T13:50:32.785Z,101395.81
2022-10-22T13:52:59.306Z,101396.75
2022-10-22T13:55:29.059Z,101398.53
2022-10-22T13:58:06.747Z,101398.22
2022-10-22T14:00:33.156Z,101393.59
2022-10-22T14:03:00.011Z,101393.59
2022-10-22T14:05:26.434Z,101398.13
2022-10-22T14:07:53.051Z,101406.31
2022-10-22T14:10:24.255Z,101401.25
2022-10-22T14:12:53.663Z,101401.38
2022-10-22T14:15:25.288Z,101404.94
2022-10-22T14:17:57.511Z,101404.13
2022-10-22T14:20:27.792Z,101401.69
2022-10-22T14:22:54.196Z,101394.75
2022-10-22T14:25:26.008Z,101409.56
2022-10-22T14:27:52.595Z,101405.28
2022-10-22T14:30:21.866Z,101406.25
2022-10-22T14:32:48.829Z,101404.53
2022-10-22T14:35:18.433Z,101412.31
2022-10-22T14:37:44.877Z,101408.00
2022-10-22T14:40:14.700Z,101410.63
2022-10-22T14:42:43.709Z,101422.22
2022-10-22T14:45:17.459Z,101428.53
2022-10-22T14:47:44.259Z,101433.03
2022-10-22T14:50:11.227Z,101436.31
2022-10-22T14:52:37.821Z,101436.31
2022-10-22T14:55:04.611Z,101438.94
2022-10-22T14:57:30.925Z,101437.16
2022-10-22T14:59:57.239Z,101439.78
2022-10-22T15:02:23.589Z,101433.56
2022-10-22T15:04:50.213Z,101439.69
2022-10-22T15:07:18.991Z,101441.44
2022-10-22T15:09:45.695Z,101443.25
2022-10-22T15:12:11.999Z,101444.94
2022-10-22T15:14:38.439Z,101448.59
2022-10-22T15:17:05.039Z,101440.94
2022-10-22T15:19:31.368Z,101455.00
2022-10-22T15:21:57.723Z,101445.44
2022-10-22T15:24:24.064Z,101451.75
2022-10-22T15:26:53.950Z,101458.91
2022-10-22T15:29:20.287Z,101457.34
2022-10-22T15:31:50.847Z,101450.47
2022-10-22T15:34:23.158Z,101458.34
2022-10-22T15:36:50.281Z,101453.59
2022-10-22T15:39:17.457Z,101456.41
2022-10-22T15:41:43.939Z,101459.25
2022-10-22T15:44:17.012Z,101467.25
2022-10-22T15:46:43.676Z,101465.84
2022-10-22T15:49:10.677Z,101469.66
2022-10-22T15:51:37.055Z,101471.63
2022-10-22T15:54:06.622Z,101472.69
2022-10-22T15:56:36.390Z,101473.81
2022-10-22T15:59:04.053Z,101469.78
2022-10-22T16:01:32.516Z,101469.06
2022-10-22T16:04:05.342Z,101463.34
2022-10-22T16:06:38.191Z,101464.50
2022-10-22T16:09:07.491Z,101458.88
2022-10-22T16:11:35.178Z,101460.84
2022-10-22T16:14:02.274Z,101466.22
2022-10-22T16:16:30.369Z,101472.63
2022-10-22T16:18:56.807Z,101473.53
2022-10-22T16:21:23.914Z,101465.97
2022-10-22T16:23:50.621Z,101472.34
2022-10-22T16:26:18.765Z,101470.78
2022-10-22T16:28:46.681Z,101471.06
2022-10-22T16:31:15.058Z,101474.81
2022-10-22T16:33:47.931Z,101475.00
2022-10-22T16:36:18.924Z,101477.06
2022-10-22T16:38:46.586Z,101480.81
2022-10-22T16:41:15.677Z,101480.00
2022-10-22T16:43:48.388Z,101481.78
2022-10-22T16:46:20.107Z,101486.28
2022-10-22T16:48:48.019Z,101488.31
2022-10-22T16:51:16.551Z,101490.16
2022-10-22T16:53:43.430Z,101486.91
2022-10-22T16:56:11.285Z,101488.03
2022-10-22T16:58:38.172Z,101489.91
2022-10-22T17:01:09.399Z,101493.47
2022-10-22T17:03:36.250Z,101491.94
2022-10-22T17:06:04.075Z,101485.22
2022-10-22T17:08:31.974Z,101484.38
2022-10-22T17:10:58.368Z,101486.25
2022-10-22T17:13:27.094Z,101487.38
2022-10-22T17:16:01.306Z,101491.84
2022-10-22T17:18:27.628Z,101494.97
2022-10-22T17:20:56.114Z,101495.97
2022-10-22T17:23:22.535Z,101502.34
2022-10-22T17:25:48.954Z,101498.97
2022-10-22T17:28:15.314Z,101507.84
2022-10-22T17:30:41.721Z,101513.09
2022-10-22T17:33:08.340Z,101511.50
2022-10-22T17:35:39.412Z,101513.72
2022-10-22T17:38:06.440Z,101512.97
2022-10-22T17:40:35.234Z,101518.13
2022-10-22T17:43:01.641Z,101517.56
2022-10-22T17:45:28.096Z,101518.69
2022-10-22T17:47:56.618Z,101522.56
2022-10-22T17:50:23.350Z,101520.97
2022-10-22T17:52:50.539Z,101526.22
2022-10-22T17:55:17.000Z,101527.31
2022-10-22T17:57:43.331Z,101528.34
2022-10-22T18:00:10.339Z,101536.28
2022-10-22T18:02:36.868Z,101523.31
2022-10-22T18:05:03.330Z,101520.09
2022-10-22T18:07:29.686Z,101512.31
2022-10-22T18:09:56.130Z,101522.28
2022-10-22T18:12:22.589Z,101525.78
2022-10-22T18:14:50.158Z,101525.78
2022-10-22T18:17:16.515Z,101529.31
2022-10-22T18:19:42.961Z,101540.81
2022-10-22T18:22:09.852Z,101543.44
2022-10-22T18:24:36.855Z,101534.63
2022-10-22T18:27:03.924Z,101525.94
2022-10-22T18:29:30.294Z,101539.47
2022-10-22T18:31:56.695Z,101532.72
2022-10-22T18:34:24.027Z,101536.19
2022-10-22T18:36:50.626Z,101541.53
2022-10-22T18:39:17.795Z,101536.56
2022-10-22T18:41:44.246Z,101540.41
2022-10-22T18:44:13.712Z,101540.28
2022-10-22T18:46:40.418Z,101543.94
2022-10-22T18:49:07.520Z,101544.00
2022-10-22T18:51:34.953Z,101547.56
2022-10-22T18:54:21.663Z,101549.25
2022-10-22T18:56:48.917Z,101550.34
2022-10-22T18:59:21.789Z,101551.28
2022-10-22T19:01:48.510Z,101545.34
2022-10-22T19:04:14.979Z,101547.22
2022-10-22T19:06:45.331Z,101546.31
2022-10-22T19:09:13.881Z,101532.44
2022-10-22T19:11:40.391Z,101531.84
2022-10-22T19:14:06.778Z,101530.25
2022-10-22T19:16:34.725Z,101526.09
2022-10-22T19:19:03.884Z,101524.69
2022-10-22T19:21:31.005Z,101525.66
2022-10-22T19:23:58.782Z,101513.44
2022-10-22T19:26:26.457Z,101521.44
2022-10-22T19:28:57.771Z,101517.16
2022-10-22T19:31:25.692Z,101515.38
2022-10-22T19:33:54.478Z,101513.28
2022-10-22T19:36:21.887Z,101517.56
2022-10-22T19:38:49.135Z,101516.97
2022-10-22T19:41:19.458Z,101517.81
2022-10-22T19:43:49.044Z,101520.34
2022-10-22T19:46:15.708Z,101525.66
2022-10-22T19:48:42.084Z,101527.59
2022-10-22T19:51:10.982Z,101527.50
2022-10-22T19:53:38.572Z,101519.03
2022-10-22T19:56:07.277Z,101523.38
2022-10-22T19:58:34.597Z,101521.78
2022-10-22T20:01:05.625Z,101524.28
2022-10-22T20:03:32.949Z,101532.47
2022-10-22T20:05:59.317Z,101533.38
2022-10-22T20:08:25.647Z,101530.09
2022-10-22T20:10:52.012Z,101530.78
2022-10-22T20:13:18.438Z,101532.47
2022-10-22T20:15:48.514Z,101528.22
2022-10-22T20:18:15.123Z,101533.47
2022-10-22T20:20:41.502Z,101532.56
2022-10-22T20:23:08.625Z,101529.19
2022-10-22T20:25:35.724Z,101536.25
2022-10-22T20:28:02.411Z,101531.16
2022-10-22T20:30:28.743Z,101530.25
2022-10-22T20:32:55.271Z,101533.97
2022-10-22T20:35:21.824Z,101535.81
2022-10-22T20:37:48.267Z,101540.97
2022-10-22T20:40:14.732Z,101535.81
2022-10-22T20:42:41.345Z,101536.81
2022-10-22T20:45:08.450Z,101537.66
2022-10-22T20:47:50.774Z,101539.44
2022-10-22T20:50:19.330Z,101534.28
2022-10-22T20:52:45.649Z,101534.34
2022-10-22T20:55:13.573Z,101533.56
2022-10-22T20:57:41.354Z,101536.19
2022-10-22T21:00:08.721Z,101544.91
2022-10-22T21:02:36.059Z,101540.69
2022-10-22T21:05:02.453Z,101534.69
2022-10-22T21:07:28.823Z,101540.22
2022-10-22T21:09:55.149Z,101544.38
2022-10-22T21:12:21.535Z,101538.28
2022-10-22T21:14:47.975Z,101537.63
2022-10-22T21:17:14.320Z,101537.50
2022-10-22T21:19:40.738Z,101536.59
2022-10-22T21:22:07.154Z,101535.97
2022-10-22T21:24:33.526Z,101537.69
2022-10-22T21:26:59.865Z,101542.91
2022-10-22T21:29:26.249Z,101543.75
2022-10-22T21:31:53.517Z,101549.81
2022-10-22T21:34:20.032Z,101547.38
2022-10-22T21:39:13.813Z,101550.00
2022-10-22T21:41:40.283Z,101542.31
2022-10-22T21:44:06.718Z,101545.66
2022-10-22T21:46:34.150Z,101536.91
2022-10-22T21:49:02.897Z,101542.47
2022-10-22T21:51:31.673Z,101542.38
2022-10-22T21:53:58.415Z,101544.06
2022-10-22T21:56:27.420Z,101547.56
2022-10-22T21:58:54.528Z,101547.56
2022-10-22T22:01:21.714Z,101554.53
2022-10-22T22:03:49.821Z,101552.84
2022-10-22T22:06:21.252Z,101552.16
2022-10-22T22:08:49.145Z,101546.91
2022-10-22T22:11:18.666Z,101552.91
2022-10-22T22:13:45.335Z,101551.13
2022-10-22T22:16:14.785Z,101544.22
2022-10-22T22:18:41.719Z,101547.84
2022-10-22T22:21:12.144Z,101540.00
2022-10-22T22:23:41.839Z,101538.25
2022-10-22T22:26:08.615Z,101534.84
2022-10-22T22:28:35.793Z,101534.09
2022-10-22T22:31:11.068Z,101526.69
2022-10-22T22:33:37.466Z,101530.84
2022-10-22T22:36:04.058Z,101528.22
2022-10-22T22:38:30.433Z,101524.75
2022-10-22T22:40:59.312Z,101520.47
2022-10-22T22:43:25.869Z,101521.38
2022-10-22T22:46:03.104Z,101523.84
2022-10-22T22:48:29.815Z,101523.91
2022-10-22T22:50:59.840Z,101523.13
2022-10-22T22:53:27.904Z,101516.25
2022-10-22T22:56:05.923Z,101507.53
2022-10-22T22:58:32.279Z,101510.38
2022-10-22T23:01:32.461Z,101501.63
2022-10-22T23:04:13.023Z,101509.53
2022-10-22T23:06:39.601Z,101506.16
2022-10-22T23:09:08.799Z,101511.31
2022-10-22T23:11:35.641Z,101515.00
2022-10-22T23:14:04.767Z,101504.78
2022-10-22T23:16:33.795Z,101499.63
2022-10-22T23:19:01.388Z,101495.41
2022-10-22T23:21:30.759Z,101492.69
2022-10-22T23:24:00.784Z,101490.97
2022-10-22T23:26:29.973Z,101493.72
2022-10-22T23:29:11.957Z,101500.47
2022-10-22T23:31:38.461Z,101494.47
2022-10-22T23:34:06.661Z,101493.78
2022-10-22T23:36:35.721Z,101492.16
2022-10-22T23:39:11.022Z,101496.38
2022-10-22T23:41:38.046Z,101506.16
2022-10-22T23:44:05.403Z,101497.38
2022-10-22T23:46:33.286Z,101497.38
2022-10-22T23:49:00.565Z,101496.56
2022-10-22T23:51:27.352Z,101483.72
2022-10-22T23:53:59.657Z,101475.13
2022-10-22T23:56:26.521Z,101462.19
2022-10-22T23:58:54.204Z,101469.97
